Time;durP1;ratioP1;P1;durP2;ratioP2;P2;SDS_P1;SDS_P2;PMS_P1;PMS_P2;Temp;Humidity;BMP_temperature;BMP_pressure;BME280_temperature;BME280_humidity;BME280_pressure;Samples;Min_cycle;Max_cycle;Signal;HPM_P1;HPM_P2
2021/04/18 00:00:38;;;;;;;12.85;9.85;;;;;;;;;;3566502;40;20386;-70
2021/04/18 00:03:05;;;;;;;12.57;9.95;;;;;;;;;;3558658;40;20505;-71
2021/04/18 00:05:32;;;;;;;13.55;10.07;;;;;;;;;;3563932;40;20402;-70
2021/04/18 00:08:02;;;;;;;12.07;9.48;;;;;;;;;;3562285;40;20411;-70
2021/04/18 00:10:29;;;;;;;11.63;9.38;;;;;;;;;;3560186;40;20466;-70
2021/04/18 00:12:55;;;;;;;15.40;11.05;;;;;;;;;;3566951;40;20384;-69
2021/04/18 00:15:21;;;;;;;14.65;10.23;;;;;;;;;;3566811;40;20397;-70
2021/04/18 00:17:47;;;;;;;12.75;9.63;;;;;;;;;;3563966;40;20431;-71
2021/04/18 00:20:15;;;;;;;13.93;10.38;;;;;;;;;;3563031;40;20427;-70
2021/04/18 00:22:41;;;;;;;15.50;11.30;;;;;;;;;;3566752;40;20441;-69
2021/04/18 00:25:09;;;;;;;13.85;10.40;;;;;;;;;;3566149;40;20401;-70
2021/04/18 00:27:35;;;;;;;14.82;10.43;;;;;;;;;;3563296;40;20394;-70
2021/04/18 00:30:01;;;;;;;12.85;9.43;;;;;;;;;;3564450;40;20434;-70
2021/04/18 00:32:27;;;;;;;14.45;9.90;;;;;;;;;;3564668;40;20408;-70
2021/04/18 00:34:54;;;;;;;12.35;9.52;;;;;;;;;;3566794;40;20370;-70
2021/04/18 00:37:21;;;;;;;13.68;10.63;;;;;;;;;;3562706;40;20376;-70
2021/04/18 00:39:47;;;;;;;13.38;10.43;;;;;;;;;;3566153;40;20408;-70
2021/04/18 00:42:13;;;;;;;16.33;11.93;;;;;;;;;;3559912;40;20391;-70
2021/04/18 00:44:39;;;;;;;18.20;12.43;;;;;;;;;;3566246;40;20397;-69
2021/04/18 00:47:05;;;;;;;14.93;11.30;;;;;;;;;;3566822;40;20390;-70
2021/04/18 00:49:32;;;;;;;14.07;10.45;;;;;;;;;;3566468;40;20671;-70
2021/04/18 00:51:58;;;;;;;14.48;10.82;;;;;;;;;;3566409;40;20433;-70
2021/04/18 00:54:25;;;;;;;13.37;10.90;;;;;;;;;;3565952;40;20585;-70
2021/04/18 00:56:51;;;;;;;17.48;12.93;;;;;;;;;;3566714;40;20700;-70
2021/04/18 00:59:17;;;;;;;14.38;11.27;;;;;;;;;;3566417;40;20389;-69
2021/04/18 01:01:44;;;;;;;14.07;10.95;;;;;;;;;;3561726;40;20783;-70
2021/04/18 01:04:10;;;;;;;15.18;10.65;;;;;;;;;;3564364;40;20801;-70
2021/04/18 01:06:36;;;;;;;14.48;10.93;;;;;;;;;;3566422;40;20430;-70
2021/04/18 01:09:03;;;;;;;14.45;10.43;;;;;;;;;;3566582;40;20397;-70
2021/04/18 01:11:30;;;;;;;14.70;11.73;;;;;;;;;;3566385;40;20694;-70
2021/04/18 01:13:56;;;;;;;14.95;11.63;;;;;;;;;;3558529;40;20789;-70
2021/04/18 01:16:22;;;;;;;13.95;10.95;;;;;;;;;;3559045;40;20397;-70
2021/04/18 01:18:48;;;;;;;14.65;11.48;;;;;;;;;;3563931;40;20383;-70
2021/04/18 01:21:16;;;;;;;15.45;11.68;;;;;;;;;;3568158;40;20374;-70
2021/04/18 01:23:42;;;;;;;14.63;11.57;;;;;;;;;;3567891;40;20384;-68
2021/04/18 01:26:08;;;;;;;15.65;12.32;;;;;;;;;;3566333;40;20405;-70
2021/04/18 01:28:34;;;;;;;15.90;12.00;;;;;;;;;;3567391;40;20385;-70
2021/04/18 01:31:01;;;;;;;14.25;10.95;;;;;;;;;;3567037;40;20870;-70
2021/04/18 01:33:27;;;;;;;13.48;10.77;;;;;;;;;;3563180;40;20385;-70
2021/04/18 01:35:53;;;;;;;12.48;10.25;;;;;;;;;;3567289;40;20392;-69
2021/04/18 01:38:21;;;;;;;12.05;10.00;;;;;;;;;;3563841;40;20379;-70
2021/04/18 01:40:47;;;;;;;13.15;10.43;;;;;;;;;;3565294;40;20384;-69
2021/04/18 01:43:14;;;;;;;12.77;9.73;;;;;;;;;;3567840;40;20479;-70
2021/04/18 01:45:40;;;;;;;12.70;10.02;;;;;;;;;;3556957;40;20403;-70
2021/04/18 01:48:08;;;;;;;11.32;9.77;;;;;;;;;;3566981;40;20385;-70
2021/04/18 01:50:38;;;;;;;12.65;10.05;;;;;;;;;;3559013;40;20393;-69
2021/04/18 01:53:05;;;;;;;12.73;10.15;;;;;;;;;;3558383;40;20390;-69
2021/04/18 01:55:32;;;;;;;13.13;10.48;;;;;;;;;;3567807;40;20420;-70
2021/04/18 01:57:58;;;;;;;12.20;9.80;;;;;;;;;;3567340;40;20388;-69
2021/04/18 02:00:24;;;;;;;12.25;9.63;;;;;;;;;;3567565;40;20386;-70
2021/04/18 02:02:51;;;;;;;15.65;11.45;;;;;;;;;;3560842;40;20544;-69
2021/04/18 02:05:17;;;;;;;13.57;11.10;;;;;;;;;;3567644;40;20430;-69
2021/04/18 02:07:43;;;;;;;13.43;9.98;;;;;;;;;;3567583;40;20378;-69
2021/04/18 02:10:09;;;;;;;13.98;11.32;;;;;;;;;;3559942;40;20398;-69
2021/04/18 02:12:37;;;;;;;13.80;10.82;;;;;;;;;;3567773;40;20467;-70
2021/04/18 02:15:03;;;;;;;14.18;11.98;;;;;;;;;;3567574;40;20393;-69
2021/04/18 02:17:29;;;;;;;14.20;11.35;;;;;;;;;;3567371;40;20385;-70
2021/04/18 02:19:56;;;;;;;14.10;11.47;;;;;;;;;;3558317;40;20477;-69
2021/04/18 02:22:22;;;;;;;13.30;10.80;;;;;;;;;;3558856;40;20439;-70
2021/04/18 02:24:48;;;;;;;14.68;11.55;;;;;;;;;;3562190;40;20392;-70
2021/04/18 02:27:14;;;;;;;14.57;11.77;;;;;;;;;;3566052;40;20401;-70
2021/04/18 02:29:41;;;;;;;15.32;12.05;;;;;;;;;;3567485;40;20424;-69
2021/04/18 02:32:08;;;;;;;15.70;12.07;;;;;;;;;;3567426;40;20471;-69
2021/04/18 02:34:34;;;;;;;16.00;12.13;;;;;;;;;;3566509;40;20780;-69
2021/04/18 02:37:00;;;;;;;14.75;11.75;;;;;;;;;;3565171;40;20713;-69
2021/04/18 02:39:27;;;;;;;14.85;11.68;;;;;;;;;;3566020;40;20759;-69
2021/04/18 02:41:53;;;;;;;15.73;12.50;;;;;;;;;;3567576;40;20398;-70
2021/04/18 02:44:19;;;;;;;14.65;11.32;;;;;;;;;;3557945;40;20390;-69
2021/04/18 02:46:46;;;;;;;14.27;11.35;;;;;;;;;;3567467;40;20380;-70
2021/04/18 02:49:12;;;;;;;16.88;12.13;;;;;;;;;;3567153;40;20782;-69
2021/04/18 02:51:39;;;;;;;15.15;12.40;;;;;;;;;;3562578;40;20713;-69
2021/04/18 02:54:05;;;;;;;17.75;13.90;;;;;;;;;;3566670;40;20424;-70
2021/04/18 02:56:31;;;;;;;16.33;13.15;;;;;;;;;;3565392;40;20773;-69
2021/04/18 02:58:58;;;;;;;13.98;11.98;;;;;;;;;;3566369;40;20751;-69
2021/04/18 03:01:24;;;;;;;14.73;11.43;;;;;;;;;;3566349;40;20390;-64
2021/04/18 03:03:51;;;;;;;14.60;11.90;;;;;;;;;;3566863;40;20500;-64
2021/04/18 03:06:17;;;;;;;17.38;13.50;;;;;;;;;;3564529;40;20406;-64
2021/04/18 03:08:43;;;;;;;15.57;11.85;;;;;;;;;;3563925;40;20783;-63
2021/04/18 03:11:10;;;;;;;14.18;11.50;;;;;;;;;;3564808;40;20401;-63
2021/04/18 03:13:36;;;;;;;14.83;12.47;;;;;;;;;;3566836;40;20481;-64
2021/04/18 03:16:02;;;;;;;14.20;11.60;;;;;;;;;;3563248;40;20403;-64
2021/04/18 03:18:28;;;;;;;14.13;11.63;;;;;;;;;;3563702;40;20670;-64
2021/04/18 03:20:56;;;;;;;13.73;11.65;;;;;;;;;;3566945;40;20734;-64
2021/04/18 03:23:22;;;;;;;15.43;11.57;;;;;;;;;;3561238;40;20809;-63
2021/04/18 03:25:48;;;;;;;13.98;11.98;;;;;;;;;;3557444;40;20382;-63
2021/04/18 03:28:14;;;;;;;17.20;13.18;;;;;;;;;;3562145;40;20457;-64
2021/04/18 03:30:41;;;;;;;18.27;13.82;;;;;;;;;;3557580;40;20761;-64
2021/04/18 03:33:07;;;;;;;16.77;13.32;;;;;;;;;;3565927;40;20386;-64
2021/04/18 03:35:33;;;;;;;15.00;12.43;;;;;;;;;;3563041;40;20399;-64
2021/04/18 03:38:02;;;;;;;15.27;11.55;;;;;;;;;;3560472;40;20662;-64
2021/04/18 03:40:29;;;;;;;14.25;12.07;;;;;;;;;;3565151;40;20390;-63
2021/04/18 03:42:55;;;;;;;14.45;11.63;;;;;;;;;;3565181;40;20386;-64
2021/04/18 03:45:21;;;;;;;15.10;12.57;;;;;;;;;;3557441;40;20475;-64
2021/04/18 03:47:48;;;;;;;14.83;12.83;;;;;;;;;;3565434;40;20497;-64
2021/04/18 03:50:14;;;;;;;17.95;12.95;;;;;;;;;;3566566;40;20393;-63
2021/04/18 03:52:41;;;;;;;14.20;11.85;;;;;;;;;;3555508;40;20403;-67
2021/04/18 03:55:09;;;;;;;14.43;11.88;;;;;;;;;;3566648;40;20385;-64
2021/04/18 03:57:35;;;;;;;14.25;11.43;;;;;;;;;;3566511;40;20397;-64
2021/04/18 04:00:01;;;;;;;15.40;12.60;;;;;;;;;;3565584;40;20870;-63
2021/04/18 04:02:27;;;;;;;15.20;12.55;;;;;;;;;;3566126;40;20401;-64
2021/04/18 04:04:53;;;;;;;17.05;13.05;;;;;;;;;;3565136;40;20397;-63
2021/04/18 04:07:20;;;;;;;15.60;12.60;;;;;;;;;;3565097;40;20389;-64
2021/04/18 04:09:46;;;;;;;16.55;13.60;;;;;;;;;;3564098;40;20404;-64
2021/04/18 04:12:13;;;;;;;15.80;12.95;;;;;;;;;;3566373;40;20400;-64
2021/04/18 04:14:39;;;;;;;15.05;12.35;;;;;;;;;;3566462;40;20389;-63
2021/04/18 04:17:05;;;;;;;15.05;11.70;;;;;;;;;;3566399;40;20763;-64
2021/04/18 04:19:32;;;;;;;15.38;12.52;;;;;;;;;;3565465;40;20759;-64
2021/04/18 04:21:58;;;;;;;16.13;13.15;;;;;;;;;;3566498;40;20391;-65
2021/04/18 04:24:24;;;;;;;14.23;11.45;;;;;;;;;;3559542;40;20409;-63
2021/04/18 04:26:50;;;;;;;13.98;11.00;;;;;;;;;;3566529;40;20767;-64
2021/04/18 04:29:17;;;;;;;16.38;13.07;;;;;;;;;;3559280;40;20416;-64
2021/04/18 04:31:43;;;;;;;16.57;13.07;;;;;;;;;;3566454;40;20465;-64
2021/04/18 04:34:10;;;;;;;15.98;12.45;;;;;;;;;;3563740;40;20380;-64
2021/04/18 04:36:36;;;;;;;14.73;12.60;;;;;;;;;;3552746;40;20560;-64
2021/04/18 04:39:03;;;;;;;17.08;12.60;;;;;;;;;;3566169;40;20388;-64
2021/04/18 04:41:29;;;;;;;19.02;13.38;;;;;;;;;;3566412;40;20389;-64
2021/04/18 04:43:55;;;;;;;16.20;12.77;;;;;;;;;;3566242;40;20370;-64
2021/04/18 04:46:22;;;;;;;16.20;12.43;;;;;;;;;;3564767;40;20377;-64
2021/04/18 04:48:48;;;;;;;13.85;10.98;;;;;;;;;;3564432;40;20445;-64
2021/04/18 04:51:14;;;;;;;16.38;11.80;;;;;;;;;;3564759;40;20394;-64
2021/04/18 04:53:41;;;;;;;15.13;10.45;;;;;;;;;;3566213;40;20825;-64
2021/04/18 04:56:07;;;;;;;14.60;11.68;;;;;;;;;;3556808;40;20405;-64
2021/04/18 04:58:33;;;;;;;18.23;13.38;;;;;;;;;;3566174;40;20421;-63
2021/04/18 05:00:59;;;;;;;16.40;12.57;;;;;;;;;;3566095;40;20656;-63
2021/04/18 05:03:27;;;;;;;14.77;11.48;;;;;;;;;;3562069;40;20493;-64
2021/04/18 05:05:54;;;;;;;14.80;12.25;;;;;;;;;;3553930;40;20393;-64
2021/04/18 05:08:23;;;;;;;13.38;11.40;;;;;;;;;;3566064;40;20548;-64
2021/04/18 05:10:49;;;;;;;15.18;11.80;;;;;;;;;;3565950;40;20419;-64
2021/04/18 05:13:15;;;;;;;15.65;12.05;;;;;;;;;;3566203;40;20382;-64
2021/04/18 05:15:41;;;;;;;14.90;12.20;;;;;;;;;;3558882;40;20441;-64
2021/04/18 05:18:08;;;;;;;13.90;11.25;;;;;;;;;;3560052;40;20529;-64
2021/04/18 05:20:35;;;;;;;14.52;12.27;;;;;;;;;;3564195;40;20400;-63
2021/04/18 05:23:01;;;;;;;17.35;13.60;;;;;;;;;;3566073;40;20778;-64
2021/04/18 05:25:27;;;;;;;13.70;11.70;;;;;;;;;;3558844;40;20470;-64
2021/04/18 05:27:54;;;;;;;15.77;12.63;;;;;;;;;;3566150;40;20393;-64
2021/04/18 05:30:20;;;;;;;14.57;12.20;;;;;;;;;;3566067;40;20397;-64
2021/04/18 05:32:47;;;;;;;13.73;12.23;;;;;;;;;;3564926;40;20407;-64
2021/04/18 05:35:13;;;;;;;15.00;12.52;;;;;;;;;;3564657;40;20747;-64
2021/04/18 05:37:40;;;;;;;15.43;12.50;;;8.60;98.10;;;;;;3565794;40;20397;-64
2021/04/18 05:40:07;;;;;;;16.80;13.85;;;8.10;99.90;;;;;;3556898;40;20383;-64
2021/04/18 05:42:33;;;;;;;16.83;14.48;;;;;;;;;;3565665;40;20385;-64
2021/04/18 05:44:59;;;;;;;16.08;13.30;;;;;;;;;;3555238;40;20401;-64
2021/04/18 05:47:26;;;;;;;15.57;12.73;;;;;;;;;;3565815;40;20408;-64
2021/04/18 05:49:52;;;;;;;15.77;12.05;;;;;;;;;;3563778;40;20401;-64
2021/04/18 05:52:19;;;;;;;16.55;12.77;;;;;;;;;;3561311;40;20516;-64
2021/04/18 05:54:46;;;;;;;15.02;11.80;;;;;;;;;;3563127;40;20389;-64
2021/04/18 05:57:12;;;;;;;15.02;11.95;;;;;;;;;;3562919;40;20440;-64
2021/04/18 05:59:38;;;;;;;14.93;12.38;;;;;;;;;;3547342;40;20405;-64
2021/04/18 06:02:04;;;;;;;14.15;11.68;;;;;;;;;;3561598;40;20788;-64
2021/04/18 06:04:31;;;;;;;14.95;11.80;;;;;;;;;;3560443;40;20413;-64
2021/04/18 06:06:57;;;;;;;15.23;12.25;;;;;;;;;;3562739;40;20395;-65
2021/04/18 06:09:23;;;;;;;14.52;11.82;;;;;;;;;;3556239;40;20446;-64
2021/04/18 06:11:50;;;;;;;13.90;11.35;;;;;;;;;;3564509;40;20729;-64
2021/04/18 06:14:16;;;;;;;14.98;11.73;;;;;;;;;;3563154;40;20397;-65
2021/04/18 06:16:43;;;;;;;15.13;11.57;;;;;;;;;;3561464;40;20390;-64
2021/04/18 06:19:09;;;;;;;13.88;10.93;;;;;;;;;;3565613;40;20397;-64
2021/04/18 06:21:35;;;;;;;13.02;10.40;;;;;;;;;;3562492;40;20457;-64
2021/04/18 06:24:01;;;;;;;17.90;12.52;;;;;;;;;;3563038;40;20398;-64
2021/04/18 06:26:28;;;;;;;19.70;13.57;;;;;;;;;;3567171;40;20729;-64
2021/04/18 06:28:55;;;;;;;14.07;10.88;;;;;;;;;;3564062;40;20407;-64
2021/04/18 06:31:21;;;;;;;14.48;10.93;;;;;;;;;;3567109;40;20442;-64
2021/04/18 06:33:47;;;;;;;12.60;9.85;;;;;;;;;;3562324;40;20461;-64
2021/04/18 06:36:14;;;;;;;12.98;10.10;;;;;;;;;;3561644;40;20395;-64
2021/04/18 06:38:40;;;;;;;12.55;10.57;;;;;;;;;;3563068;40;20377;-64
2021/04/18 06:41:07;;;;;;;12.43;10.18;;;;;;;;;;3562928;40;20761;-64
2021/04/18 06:43:34;;;;;;;12.13;10.52;;;;;;;;;;3566382;40;20417;-64
2021/04/18 06:46:01;;;;;;;13.45;10.52;;;;;;;;;;3566254;40;20386;-64
2021/04/18 06:48:28;;;;;;;12.25;10.18;;;;;;;;;;3563867;40;20393;-64
2021/04/18 06:50:55;;;;;;;12.70;10.07;;;;;;;;;;3563275;40;20742;-64
2021/04/18 06:53:21;;;;;;;13.00;10.55;;;;;;;;;;3564354;40;20666;-64
2021/04/18 06:55:48;;;;;;;17.67;11.88;;;;;;;;;;3556747;40;20395;-64
2021/04/18 06:58:14;;;;;;;12.85;10.90;;;;;;;;;;3564598;40;20846;-64
2021/04/18 07:00:40;;;;;;;13.95;11.25;;;;;;;;;;3561602;40;20388;-64
2021/04/18 07:03:11;;;;;;;12.68;10.98;;;;;;;;;;3559821;40;20668;-64
2021/04/18 07:05:44;;;;;;;13.25;10.20;;;;;;;;;;3566536;40;20777;-65
2021/04/18 07:08:21;;;;;;;11.73;10.13;;;;;;;;;;3565307;40;20381;-64
2021/04/18 07:10:47;;;;;;;12.30;10.65;;;;;;;;;;3561701;40;20426;-65
2021/04/18 07:13:15;;;;;;;10.88;9.52;;;;;;;;;;3566402;40;20439;-64
2021/04/18 07:15:42;;;;;;;10.68;9.00;;;;;;;;;;3553530;40;20399;-65
2021/04/18 07:18:09;;;;;;;13.25;10.15;;;;;;;;;;3566434;40;20863;-64
2021/04/18 07:20:51;;;;;;;11.93;9.90;;;;;;;;;;3566634;40;20485;-64
2021/04/18 07:23:23;;;;;;;13.85;10.18;;;;;;;;;;3564940;40;20374;-65
2021/04/18 07:25:49;;;;;;;10.70;9.47;;;;;;;;;;3566530;40;20475;-64
2021/04/18 07:28:21;;;;;;;11.63;10.00;;;;;;;;;;3557415;40;20844;-64
2021/04/18 07:30:49;;;;;;;11.35;9.90;;;;;;;;;;3566650;40;20377;-64
2021/04/18 07:33:16;;;;;;;12.48;10.02;;;;;;;;;;3562139;40;20699;-64
2021/04/18 07:35:44;;;;;;;10.68;9.52;;;;;;;;;;3564261;40;20406;-63
2021/04/18 07:38:17;;;;;;;10.95;9.48;;;;;;;;;;3566559;40;20389;-64
2021/04/18 07:40:44;;;;;;;12.40;10.63;;;;;;;;;;3565112;40;20679;-64
2021/04/18 07:43:10;;;;;;;15.50;11.55;;;;;;;;;;3566863;40;20388;-64
2021/04/18 07:45:38;;;;;;;12.40;9.60;;;;;;;;;;3566548;40;20739;-65
2021/04/18 07:48:09;;;;;;;12.43;10.30;;;8.10;99.90;;;;;;3565145;40;20381;-64
2021/04/18 07:50:36;;;;;;;11.23;9.43;;;;;;;;;;3564810;40;20792;-64
2021/04/18 07:53:03;;;;;;;11.98;9.77;;;;;;;;;;3566243;40;20777;-64
2021/04/18 07:55:30;;;;;;;16.58;13.13;;;;;;;;;;3565241;40;20747;-64
2021/04/18 07:57:57;;;;;;;11.95;10.45;;;;;;;;;;3565370;40;20770;-64
2021/04/18 08:00:24;;;;;;;10.43;9.00;;;;;;;;;;3553007;40;20374;-64
2021/04/18 08:02:51;;;;;;;10.80;9.60;;;;;;;;;;3566040;40;20768;-64
2021/04/18 08:05:18;;;;;;;12.50;10.13;;;;;;;;;;3566485;40;20377;-64
2021/04/18 08:08:06;;;;;;;11.88;10.15;;;;;;;;;;3566478;40;20381;-64
2021/04/18 08:10:34;;;;;;;12.27;9.97;;;;;;;;;;3560456;40;20512;-64
2021/04/18 08:13:02;;;;;;;11.73;9.70;;;;;;;;;;3561394;40;20513;-64
2021/04/18 08:15:28;;;;;;;12.63;11.15;;;;;;;;;;3563564;40;20429;-64
2021/04/18 08:18:03;;;;;;;13.52;11.35;;;10.20;95.30;;;;;;3556558;40;20427;-65
2021/04/18 08:20:31;;;;;;;11.70;9.95;;;;;;;;;;3564343;40;20389;-64
2021/04/18 08:23:02;;;;;;;11.98;9.43;;;;;;;;;;3566194;40;20389;-64
2021/04/18 08:25:30;;;;;;;10.60;9.25;;;;;;;;;;3566295;40;20730;-65
2021/04/18 08:28:16;;;;;;;10.60;8.80;;;;;;;;;;3566480;40;20418;-64
2021/04/18 08:31:03;;;;;;;10.98;9.15;;;;;;;;;;3557832;40;20671;-64
2021/04/18 08:33:45;;;;;;;12.02;10.00;;;;;;;;;;3566197;40;20420;-64
2021/04/18 08:36:13;;;;;;;11.82;9.30;;;;;;;;;;3556875;40;20389;-64
2021/04/18 08:38:39;;;;;;;10.43;8.75;;;;;;;;;;3566166;40;20389;-64
2021/04/18 08:41:10;;;;;;;12.43;9.60;;;;;;;;;;3564419;40;20375;-64
2021/04/18 08:43:36;;;;;;;9.55;8.55;;;;;;;;;;3562698;40;20381;-64
2021/04/18 08:46:02;;;;;;;11.07;9.75;;;;;;;;;;3563144;40;20647;-65
2021/04/18 08:48:28;;;;;;;16.95;12.13;;;;;;;;;;3566176;40;20377;-64
2021/04/18 08:50:55;;;;;;;18.53;14.67;;;;;;;;;;3565973;40;20885;-65
2021/04/18 08:53:22;;;;;;;10.68;9.40;;;;;;;;;;3564928;40;20370;-64
2021/04/18 08:55:51;;;;;;;11.82;10.63;;;;;;;;;;3565561;40;20394;-64
2021/04/18 08:58:30;;;;;;;11.30;10.10;;;;;;;;;;3564046;40;20459;-64
2021/04/18 09:01:02;;;;;;;10.55;9.45;;;;;;;;;;3566073;40;20430;-64
2021/04/18 09:03:29;;;;;;;10.23;9.10;;;;;;;;;;3558917;40;20413;-65
2021/04/18 09:06:01;;;;;;;11.43;9.80;;;;;;;;;;3566023;40;20382;-65
2021/04/18 09:08:28;;;;;;;11.35;9.73;;;;;;;;;;3563604;40;20386;-64
2021/04/18 09:11:02;;;;;;;10.80;9.57;;;;;;;;;;3561382;40;20369;-64
2021/04/18 09:13:28;;;;;;;11.07;9.70;;;;;;;;;;3558895;40;20371;-66
2021/04/18 09:15:55;;;;;;;11.52;9.30;;;;;;;;;;3563058;40;20379;-64
2021/04/18 09:18:23;;;;;;;10.30;9.20;;;;;;;;;;3565236;40;20401;-64
2021/04/18 09:21:13;;;;;;;11.05;9.57;;;13.60;89.80;;;;;;3563399;40;20383;-64
2021/04/18 09:23:55;;;;;;;10.18;9.15;;;;;;;;;;3563083;40;20774;-64
2021/04/18 09:26:21;;;;;;;10.65;9.55;;;;;;;;;;3556225;40;20755;-64
2021/04/18 09:29:02;;;;;;;11.68;10.43;;;;;;;;;;3562742;40;20398;-67
2021/04/18 09:31:29;;;;;;;11.00;9.20;;;;;;;;;;3562571;40;20480;-64
2021/04/18 09:34:01;;;;;;;9.93;8.88;;;;;;;;;;3563196;40;20639;-64
2021/04/18 09:36:28;;;;;;;9.93;8.68;;;;;;;;;;3564285;40;20434;-64
2021/04/18 09:38:54;;;;;;;9.35;8.35;;;;;;;;;;3565255;40;20388;-65
2021/04/18 09:41:20;;;;;;;10.18;9.18;;;;;;;;;;3557815;40;20403;-65
2021/04/18 09:43:54;;;;;;;10.68;8.88;;;13.40;86.20;;;;;;3558040;40;20401;-64
2021/04/18 09:46:20;;;;;;;10.25;9.15;;;14.20;81.80;;;;;;3557523;40;20378;-64
2021/04/18 09:48:58;;;;;;;10.40;9.18;;;14.00;81.10;;;;;;3567224;40;20405;-65
2021/04/18 09:51:24;;;;;;;9.10;8.20;;;14.30;81.60;;;;;;3564254;40;20481;-64
2021/04/18 09:54:00;;;;;;;9.68;8.68;;;14.50;80.30;;;;;;3566367;40;20409;-65
2021/04/18 09:56:26;;;;;;;9.55;8.65;;;;;;;;;;3564056;40;20776;-64
2021/04/18 09:58:53;;;;;;;8.77;7.95;;;14.50;78.50;;;;;;3567159;40;20843;-64
2021/04/18 10:01:24;;;;;;;9.00;8.10;;;14.90;78.40;;;;;;3556018;40;20407;-64
2021/04/18 10:03:51;;;;;;;12.10;10.77;;;14.90;75.50;;;;;;3562483;40;20418;-64
2021/04/18 10:06:18;;;;;;;9.68;8.77;;;14.70;79.70;;;;;;3563075;40;20409;-64
2021/04/18 10:08:53;;;;;;;9.17;8.27;;;;;;;;;;3561691;40;20403;-64
2021/04/18 10:11:21;;;;;;;10.45;9.38;;;14.90;78.80;;;;;;3563462;40;20418;-65
2021/04/18 10:13:53;;;;;;;10.43;9.32;;;15.10;78.90;;;;;;3564629;40;20385;-64
2021/04/18 10:16:21;;;;;;;11.00;9.63;;;15.20;79.80;;;;;;3558906;40;20376;-65
2021/04/18 10:19:05;;;;;;;9.77;8.77;;;;;;;;;;3555640;40;20404;-64
2021/04/18 10:21:33;;;;;;;9.07;8.10;;;;;;;;;;3561771;40;20399;-64
2021/04/18 10:23:59;;;;;;;10.20;9.20;;;;;;;;;;3563241;40;20481;-64
2021/04/18 10:26:25;;;;;;;9.90;8.98;;;;;;;;;;3566998;40;20425;-64
2021/04/18 10:28:53;;;;;;;10.50;9.40;;;15.30;76.40;;;;;;3565570;40;20401;-64
2021/04/18 10:31:21;;;;;;;9.30;8.40;;;15.00;73.40;;;;;;3563824;40;20616;-65
2021/04/18 10:33:47;;;;;;;8.80;8.00;;;15.00;76.80;;;;;;3554665;40;20831;-65
2021/04/18 10:36:14;;;;;;;10.53;9.43;;;15.20;74.70;;;;;;3566548;40;20397;-65
2021/04/18 10:38:41;;;;;;;9.53;8.63;;;15.30;71.90;;;;;;3566902;40;20420;-67
2021/04/18 10:41:08;;;;;;;9.65;8.75;;;;;;;;;;3565794;40;20640;-65
2021/04/18 10:43:34;;;;;;;9.32;8.43;;;;;;;;;;3565711;40;20464;-65
2021/04/18 10:46:00;;;;;;;11.95;10.38;;;15.40;74.00;;;;;;3560997;40;20490;-65
2021/04/18 10:48:26;;;;;;;10.85;9.50;;;;;;;;;;3566835;40;20374;-65
2021/04/18 10:50:53;;;;;;;11.13;9.70;;;;;;;;;;3564175;40;20382;-65
2021/04/18 10:53:20;;;;;;;10.65;9.55;;;14.80;73.40;;;;;;3567178;40;20377;-64
2021/04/18 10:55:47;;;;;;;10.82;9.73;;;14.60;75.20;;;;;;3566661;40;20385;-64
2021/04/18 10:58:15;;;;;;;10.02;8.93;;;14.30;71.30;;;;;;3561709;40;20397;-64
2021/04/18 11:00:41;;;;;;;10.90;9.80;;;14.10;76.40;;;;;;3566888;40;20390;-65
2021/04/18 11:03:07;;;;;;;9.52;8.40;;;14.00;77.40;;;;;;3556926;40;20746;-65
2021/04/18 11:05:33;;;;;;;9.68;8.68;;;14.60;77.30;;;;;;3559417;40;20457;-64
2021/04/18 11:07:59;;;;;;;10.02;9.13;;;15.30;78.80;;;;;;3566396;40;20413;-65
2021/04/18 11:10:25;;;;;;;9.67;8.40;;;15.60;71.80;;;;;;3566536;40;20386;-66
2021/04/18 11:12:52;;;;;;;9.93;8.95;;;15.70;73.30;;;;;;3566809;40;20390;-65
2021/04/18 11:15:18;;;;;;;11.32;10.13;;;15.40;71.00;;;;;;3566386;40;20394;-64
2021/04/18 11:17:44;;;;;;;9.55;8.57;;;14.70;72.70;;;;;;3560425;40;20390;-65
2021/04/18 11:20:13;;;;;;;8.70;7.80;;;15.10;74.90;;;;;;3566755;40;20382;-65
2021/04/18 11:22:40;;;;;;;10.07;9.10;;;15.50;74.00;;;;;;3566444;40;20540;-64
2021/04/18 11:25:08;;;;;;;10.20;9.23;;;15.90;73.90;;;;;;3566814;40;20425;-65
2021/04/18 11:27:34;;;;;;;11.50;10.30;;;15.60;70.40;;;;;;3564836;40;20401;-65
2021/04/18 11:30:03;;;;;;;10.15;9.05;;;14.90;68.90;;;;;;3561753;40;20453;-65
2021/04/18 11:32:29;;;;;;;7.50;6.80;;;14.40;71.00;;;;;;3566445;40;20467;-65
2021/04/18 11:34:55;;;;;;;12.33;11.20;;;14.50;70.90;;;;;;3557341;40;20761;-65
2021/04/18 11:37:21;;;;;;;12.68;11.45;;;14.50;69.60;;;;;;3565420;40;20469;-65
2021/04/18 11:39:47;;;;;;;12.82;11.52;;;14.40;72.00;;;;;;3566919;40;20381;-65
2021/04/18 11:42:13;;;;;;;10.17;9.10;;;;;;;;;;3568210;40;20396;-65
2021/04/18 11:44:43;;;;;;;9.45;8.45;;;;;;;;;;3566142;40;20394;-65
2021/04/18 11:47:10;;;;;;;8.75;7.85;;;;;;;;;;3557189;40;20413;-66
2021/04/18 11:49:36;;;;;;;8.75;7.70;;;14.20;70.00;;;;;;3566416;40;20786;-65
2021/04/18 11:52:02;;;;;;;10.50;8.20;;;;;;;;;;3571685;40;20380;-65
2021/04/18 11:54:28;;;;;;;8.95;8.05;;;14.30;73.10;;;;;;3557461;40;20385;-65
2021/04/18 11:56:54;;;;;;;8.95;8.07;;;14.70;69.60;;;;;;3560185;40;20520;-64
2021/04/18 11:59:20;;;;;;;8.93;7.78;;;14.70;71.20;;;;;;3565040;40;20434;-65
2021/04/18 12:01:46;;;;;;;8.77;7.97;;;14.70;69.30;;;;;;3566345;40;20782;-65
2021/04/18 12:04:13;;;;;;;9.02;8.18;;;14.70;70.50;;;;;;3565791;40;20421;-65
2021/04/18 12:06:39;;;;;;;9.32;8.43;;;14.50;69.60;;;;;;3564077;40;20405;-64
2021/04/18 12:09:06;;;;;;;8.52;7.72;;;14.30;68.70;;;;;;3566300;40;20499;-65
2021/04/18 12:11:32;;;;;;;8.52;7.60;;;14.50;71.80;;;;;;3566356;40;20393;-65
2021/04/18 12:13:58;;;;;;;7.05;6.07;;;15.10;74.30;;;;;;3564508;40;20371;-65
2021/04/18 12:16:24;;;;;;;7.70;6.90;;;15.30;73.20;;;;;;3556693;40;20402;-65
2021/04/18 12:18:50;;;;;;;8.25;7.45;;;15.50;69.40;;;;;;3557631;40;20375;-65
2021/04/18 12:21:17;;;;;;;10.15;8.20;;;15.20;67.00;;;;;;3562219;40;20379;-65
2021/04/18 12:23:43;;;;;;;7.85;7.15;;;14.90;68.10;;;;;;3563546;40;20437;-64
2021/04/18 12:26:09;;;;;;;7.65;6.78;;;14.80;70.80;;;;;;3563125;40;20394;-64
2021/04/18 12:28:35;;;;;;;8.90;8.02;;;14.60;68.60;;;;;;3551637;40;20407;-64
2021/04/18 12:31:01;;;;;;;11.52;9.85;;;14.90;66.50;;;;;;3548031;40;20789;-65
2021/04/18 12:33:27;;;;;;;9.57;8.68;;;14.80;64.80;;;;;;3566435;40;20377;-64
2021/04/18 12:35:53;;;;;;;12.52;11.32;;;;;;;;;;3556619;40;20693;-65
2021/04/18 12:38:21;;;;;;;12.35;11.15;;;;;;;;;;3565304;40;20401;-65
2021/04/18 12:40:46;;;;;;;8.60;7.80;;;14.30;67.50;;;;;;3564588;40;20480;-64
2021/04/18 12:43:12;;;;;;;7.97;7.17;;;15.10;66.50;;;;;;3560751;40;20397;-65
2021/04/18 12:45:39;;;;;;;10.20;7.50;;;;;;;;;;3566076;40;20378;-65
2021/04/18 12:48:08;;;;;;;8.15;7.00;;;15.50;66.50;;;;;;3563853;40;20394;-65
2021/04/18 12:50:34;;;;;;;7.22;6.53;;;;;;;;;;3563423;40;20418;-65
2021/04/18 12:53:00;;;;;;;7.65;6.93;;;;;;;;;;3565247;40;20863;-64
2021/04/18 12:55:28;;;;;;;7.07;6.47;;;;;;;;;;3557558;40;20397;-65
2021/04/18 12:57:54;;;;;;;8.35;7.28;;;;;;;;;;3556357;40;20520;-66
2021/04/18 13:00:20;;;;;;;7.60;6.90;;;;;;;;;;3565695;40;20390;-69
2021/04/18 13:02:47;;;;;;;6.93;6.28;;;;;;;;;;3558360;40;20403;-67
2021/04/18 13:05:13;;;;;;;7.93;7.13;;;;;;;;;;3554928;40;20406;-67
2021/04/18 13:07:39;;;;;;;8.93;8.10;;;;;;;;;;3559210;40;20390;-66
2021/04/18 13:10:08;;;;;;;9.00;8.00;;;;;;;;;;3556334;40;20421;-66
2021/04/18 13:12:36;;;;;;;8.93;8.03;;;;;;;;;;3563296;40;20381;-67
2021/04/18 13:15:03;;;;;;;8.40;7.60;;;;;;;;;;3563089;40;20648;-66
2021/04/18 13:17:29;;;;;;;8.55;7.38;;;;;;;;;;3557365;40;20397;-66
2021/04/18 13:19:55;;;;;;;8.50;7.60;;;;;;;;;;3552120;40;20413;-67
2021/04/18 13:22:21;;;;;;;7.35;6.65;;;;;;;;;;3561565;40;20400;-66
2021/04/18 13:24:48;;;;;;;6.70;6.10;;;;;;;;;;3561245;40;20401;-66
2021/04/18 13:27:15;;;;;;;6.35;5.82;;;;;;;;;;3557947;40;20436;-66
2021/04/18 13:29:42;;;;;;;6.72;6.13;;;;;;;;;;3562318;40;20485;-66
2021/04/18 13:32:09;;;;;;;6.25;5.65;;;;;;;;;;3555858;40;20415;-69
2021/04/18 13:34:35;;;;;;;5.47;4.97;;;;;;;;;;3561401;40;20610;-66
2021/04/18 13:37:01;;;;;;;5.65;5.13;;;;;;;;;;3555961;40;20410;-67
2021/04/18 13:39:28;;;;;;;5.50;5.00;;;;;;;;;;3561829;40;20463;-66
2021/04/18 13:41:54;;;;;;;5.15;4.75;;;;;;;;;;3555504;40;20692;-67
2021/04/18 13:44:20;;;;;;;4.90;4.40;;;;;;;;;;3562362;40;20413;-67
2021/04/18 13:46:48;;;;;;;5.30;4.88;;;;;;;;;;3562539;40;20398;-68
2021/04/18 13:49:14;;;;;;;5.55;5.05;;;;;;;;;;3561566;40;20404;-67
2021/04/18 13:51:41;;;;;;;6.03;5.53;;;;;;;;;;3556815;40;20418;-66
2021/04/18 13:54:07;;;;;;;6.10;5.53;;;;;;;;;;3563011;40;20713;-66
2021/04/18 13:56:34;;;;;;;5.80;5.20;;;;;;;;;;3562732;40;20365;-66
2021/04/18 13:59:01;;;;;;;6.90;6.30;;;;;;;;;;3562095;40;20405;-67
2021/04/18 14:01:27;;;;;;;7.32;6.72;;;;;;;;;;3562786;40;20435;-68